createdAt,value
2018-12-22T00:00:47.755Z,9.87
2018-12-22T00:03:15.629Z,8.63
2018-12-22T00:05:43.823Z,9.47
2018-12-22T00:08:12.169Z,6.20
2018-12-22T00:10:40.444Z,7.63
2018-12-22T00:13:08.346Z,8.33
2018-12-22T00:15:39.011Z,7.43
2018-12-22T00:18:07.327Z,6.07
2018-12-22T00:20:35.288Z,7.87
2018-12-22T00:23:03.191Z,6.07
2018-12-22T00:25:31.654Z,7.10
2018-12-22T00:27:59.983Z,7.93
2018-12-22T00:30:28.292Z,9.27
2018-12-22T00:32:56.655Z,9.47
2018-12-22T00:35:24.737Z,9.37
2018-12-22T00:37:52.812Z,11.00
2018-12-22T00:40:20.848Z,8.37
2018-12-22T00:42:48.743Z,8.73
2018-12-22T00:45:17.019Z,7.47
2018-12-22T00:47:45.477Z,7.47
2018-12-22T00:50:14.022Z,8.07
2018-12-22T00:52:42.051Z,9.27
2018-12-22T00:55:10.531Z,8.63
2018-12-22T00:57:38.602Z,11.17
2018-12-22T01:00:08.515Z,11.53
2018-12-22T01:02:37.171Z,11.33
2018-12-22T01:05:05.486Z,10.57
2018-12-22T01:07:33.547Z,11.17
2018-12-22T01:10:02.033Z,7.07
2018-12-22T01:12:30.303Z,10.87
2018-12-22T01:14:58.373Z,10.53
2018-12-22T01:17:26.854Z,6.80
2018-12-22T01:19:54.719Z,10.43
2018-12-22T01:22:22.586Z,10.77
2018-12-22T01:24:50.451Z,9.50
2018-12-22T01:27:18.725Z,6.13
2018-12-22T01:29:47.207Z,11.70
2018-12-22T01:32:15.276Z,11.33
2018-12-22T01:34:43.148Z,8.87
2018-12-22T01:37:11.704Z,5.17
2018-12-22T01:39:40.310Z,6.00
2018-12-22T01:42:08.583Z,5.53
2018-12-22T01:44:37.233Z,6.07
2018-12-22T01:47:05.144Z,6.77
2018-12-22T01:49:33.410Z,5.23
2018-12-22T01:52:01.727Z,8.53
2018-12-22T01:54:29.655Z,12.87
2018-12-22T01:56:57.727Z,12.70
2018-12-22T01:59:26.200Z,12.00
2018-12-22T02:01:54.276Z,13.47
2018-12-22T02:04:22.151Z,11.27
2018-12-22T02:06:50.619Z,12.07
2018-12-22T02:09:18.690Z,10.40
2018-12-22T02:11:46.556Z,12.53
2018-12-22T02:14:14.420Z,8.63
2018-12-22T02:16:42.293Z,10.10
2018-12-22T02:19:10.718Z,10.73
2018-12-22T02:21:38.595Z,8.70
2018-12-22T02:24:06.715Z,7.00
2018-12-22T02:26:35.203Z,14.33
2018-12-22T02:29:03.849Z,13.70
2018-12-22T02:31:31.941Z,11.67
2018-12-22T02:34:01.498Z,10.23
2018-12-22T02:36:30.082Z,12.23
2018-12-22T02:38:58.199Z,5.60
2018-12-22T02:41:27.675Z,7.40
2018-12-22T02:43:56.080Z,8.37
2018-12-22T02:46:25.072Z,11.33
2018-12-22T02:48:52.939Z,6.90
2018-12-22T02:51:21.006Z,10.73
2018-12-22T02:53:49.080Z,7.60
2018-12-22T02:56:17.751Z,12.13
2018-12-22T02:58:45.834Z,10.60
2018-12-22T03:01:13.910Z,14.17
2018-12-22T03:03:42.208Z,13.37
2018-12-22T03:06:10.261Z,12.03
2018-12-22T03:08:38.535Z,15.77
2018-12-22T03:11:06.396Z,14.33
2018-12-22T03:13:35.341Z,12.80
2018-12-22T03:16:03.413Z,19.50
2018-12-22T03:18:31.939Z,18.57
2018-12-22T03:20:59.799Z,15.40
2018-12-22T03:23:27.667Z,17.77
2018-12-22T03:25:55.736Z,17.63
2018-12-22T03:28:24.217Z,13.63
2018-12-22T03:30:52.299Z,18.03
2018-12-22T03:33:20.803Z,17.90
2018-12-22T03:35:48.837Z,21.43
2018-12-22T03:38:17.163Z,15.87
2018-12-22T03:40:45.186Z,13.93
2018-12-22T03:43:13.566Z,20.67
2018-12-22T03:45:41.636Z,17.83
2018-12-22T03:48:10.102Z,14.07
2018-12-22T03:50:37.978Z,17.97
2018-12-22T03:53:06.252Z,10.13
2018-12-22T03:55:34.121Z,7.53
2018-12-22T03:58:01.995Z,8.20
2018-12-22T04:00:30.055Z,6.87
2018-12-22T04:02:58.534Z,10.13
2018-12-22T04:05:26.429Z,5.43
2018-12-22T04:07:54.471Z,8.67
2018-12-22T04:10:22.532Z,11.60
2018-12-22T04:12:50.935Z,6.77
2018-12-22T04:15:19.065Z,8.17
2018-12-22T04:17:47.178Z,7.43
2018-12-22T04:20:15.247Z,8.83
2018-12-22T04:22:43.107Z,8.43
2018-12-22T04:25:11.169Z,8.47
2018-12-22T04:27:39.657Z,12.57
2018-12-22T04:30:08.008Z,13.60
2018-12-22T04:32:36.221Z,11.40
2018-12-22T04:35:05.008Z,13.50
2018-12-22T04:37:32.981Z,12.47
2018-12-22T04:40:01.444Z,16.97
2018-12-22T04:42:29.732Z,11.40
2018-12-22T04:44:57.789Z,13.07
2018-12-22T04:47:25.849Z,11.17
2018-12-22T04:49:54.684Z,13.80
2018-12-22T04:52:22.814Z,14.13
2018-12-22T04:54:51.313Z,17.63
2018-12-22T04:57:19.363Z,21.20
2018-12-22T04:59:47.631Z,24.40
2018-12-22T05:02:15.518Z,21.90
2018-12-22T05:04:43.378Z,14.80
2018-12-22T05:07:11.439Z,18.43
2018-12-22T05:09:39.903Z,16.63
2018-12-22T05:12:07.783Z,22.77
2018-12-22T05:14:35.876Z,21.93
2018-12-22T05:17:03.731Z,24.00
2018-12-22T05:19:31.995Z,19.73
2018-12-22T05:22:00.479Z,19.70
2018-12-22T05:24:28.984Z,18.43
2018-12-22T05:26:57.027Z,18.30
2018-12-22T05:29:25.303Z,19.57
2018-12-22T05:31:54.163Z,20.43
2018-12-22T05:34:22.340Z,23.90
2018-12-22T05:36:50.334Z,27.50
2018-12-22T05:39:18.838Z,32.33
2018-12-22T05:41:46.883Z,31.67
2018-12-22T05:44:14.983Z,30.63
2018-12-22T05:46:45.503Z,28.37
2018-12-22T05:49:13.760Z,35.33
2018-12-22T05:51:41.600Z,27.63
2018-12-22T05:54:09.488Z,31.43
2018-12-22T05:56:37.484Z,29.40
2018-12-22T05:59:05.631Z,26.20
2018-12-22T06:01:33.703Z,32.97
2018-12-22T06:04:02.264Z,35.70
2018-12-22T06:06:30.260Z,29.97
2018-12-22T06:08:58.836Z,33.90
2018-12-22T06:11:26.875Z,34.00
2018-12-22T06:13:54.871Z,37.10
2018-12-22T06:16:22.840Z,36.70
2018-12-22T06:18:51.321Z,37.27
2018-12-22T06:21:19.599Z,31.10
2018-12-22T06:23:48.611Z,36.17
2018-12-22T06:26:16.556Z,35.27
2018-12-22T06:28:44.841Z,36.63
2018-12-22T06:31:12.894Z,37.23
2018-12-22T06:33:41.178Z,30.70
2018-12-22T06:36:09.266Z,38.90
2018-12-22T06:38:37.591Z,37.03
2018-12-22T06:41:06.135Z,35.67
2018-12-22T06:43:33.999Z,37.30
2018-12-22T06:46:02.662Z,42.10
2018-12-22T06:48:33.214Z,40.13
2018-12-22T06:51:01.835Z,37.87
2018-12-22T06:53:30.261Z,41.07
2018-12-22T06:55:58.219Z,36.77
2018-12-22T06:58:26.100Z,44.23
2018-12-22T07:00:54.789Z,40.13
2018-12-22T07:03:23.280Z,42.93
2018-12-22T07:05:51.143Z,39.27
2018-12-22T07:08:19.306Z,39.77
2018-12-22T07:10:47.174Z,37.43
2018-12-22T07:13:15.656Z,33.67
2018-12-22T07:15:45.369Z,38.20
2018-12-22T07:18:13.430Z,41.33
2018-12-22T07:20:41.291Z,36.53
2018-12-22T07:23:10.374Z,35.17
2018-12-22T07:25:38.240Z,41.17
2018-12-22T07:28:11.838Z,33.20
2018-12-22T07:30:40.019Z,33.67
2018-12-22T07:33:07.832Z,46.73
2018-12-22T07:35:36.072Z,40.67
2018-12-22T07:38:04.135Z,36.93
2018-12-22T07:40:31.996Z,42.17
2018-12-22T07:43:00.266Z,46.73
2018-12-22T07:45:28.356Z,36.97
2018-12-22T07:47:56.608Z,43.20
2018-12-22T07:50:25.104Z,39.17
2018-12-22T07:52:52.955Z,39.87
2018-12-22T07:55:20.833Z,40.53
2018-12-22T07:57:59.591Z,40.47
2018-12-22T08:00:34.774Z,48.47
2018-12-22T08:02:59.987Z,45.00
2018-12-22T08:05:27.849Z,48.67
2018-12-22T08:08:00.931Z,45.97
2018-12-22T08:10:29.503Z,44.17
2018-12-22T08:12:57.569Z,46.50
2018-12-22T08:15:26.889Z,41.60
2018-12-22T08:17:54.718Z,42.37
2018-12-22T08:20:22.829Z,44.23
2018-12-22T08:22:51.000Z,39.83
2018-12-22T08:25:18.887Z,43.10
2018-12-22T08:27:46.747Z,43.20
2018-12-22T08:30:15.032Z,34.20
2018-12-22T08:32:42.875Z,48.87
2018-12-22T08:35:10.781Z,40.67
2018-12-22T08:37:46.195Z,40.60
2018-12-22T08:40:14.254Z,39.47
2018-12-22T08:42:42.272Z,35.07
2018-12-22T08:45:10.553Z,36.77
2018-12-22T08:47:38.477Z,35.87
2018-12-22T08:50:09.327Z,34.13
2018-12-22T08:52:37.765Z,31.37
2018-12-22T08:55:06.834Z,35.43
2018-12-22T08:57:34.777Z,27.60
2018-12-22T09:00:02.660Z,25.10
2018-12-22T09:02:30.499Z,26.40
2018-12-22T09:04:58.827Z,27.37
2018-12-22T09:07:30.763Z,20.33
2018-12-22T09:09:58.608Z,20.57
2018-12-22T09:12:27.081Z,20.57
2018-12-22T09:14:55.164Z,20.63
2018-12-22T09:20:03.590Z,17.13
2018-12-22T09:22:31.533Z,17.70
2018-12-22T09:24:59.389Z,16.37
2018-12-22T09:27:27.796Z,18.87
2018-12-22T09:29:55.655Z,16.33
2018-12-22T09:32:23.489Z,15.60
2018-12-22T09:34:51.433Z,14.87
2018-12-22T09:37:19.305Z,17.43
2018-12-22T09:39:47.398Z,15.63
2018-12-22T09:42:15.563Z,19.60
2018-12-22T09:44:43.380Z,17.43
2018-12-22T09:47:11.213Z,17.97
2018-12-22T09:49:39.040Z,17.03
2018-12-22T09:52:06.995Z,14.87
2018-12-22T09:54:35.165Z,17.73
2018-12-22T09:57:03.252Z,17.60
2018-12-22T09:59:31.071Z,16.73
2018-12-22T10:01:58.868Z,17.97
2018-12-22T10:04:26.936Z,19.80
2018-12-22T10:06:54.745Z,17.57
2018-12-22T10:09:23.169Z,20.73
2018-12-22T10:11:51.020Z,19.27
2018-12-22T10:14:19.063Z,20.83
2018-12-22T10:16:46.977Z,18.47
2018-12-22T10:19:14.831Z,14.97
2018-12-22T10:21:42.769Z,20.10
2018-12-22T10:24:11.040Z,17.70
2018-12-22T10:26:39.125Z,16.07
2018-12-22T10:29:07.208Z,16.40
2018-12-22T10:31:35.284Z,18.87
2018-12-22T10:34:03.395Z,19.50
2018-12-22T10:36:31.464Z,16.73
2018-12-22T10:38:59.291Z,17.90
2018-12-22T10:41:27.373Z,18.67
2018-12-22T10:43:55.418Z,15.93
2018-12-22T10:46:43.121Z,15.30
2018-12-22T10:49:11.448Z,17.50
2018-12-22T10:51:39.283Z,15.03
2018-12-22T10:54:07.087Z,17.50
2018-12-22T10:56:35.414Z,16.23
2018-12-22T10:59:03.332Z,17.60
2018-12-22T11:01:31.556Z,19.03
2018-12-22T11:03:59.656Z,18.93
2018-12-22T11:06:27.747Z,18.93
2018-12-22T11:08:55.560Z,19.43
2018-12-22T11:11:23.679Z,18.63
2018-12-22T11:13:51.816Z,20.80
2018-12-22T11:16:20.688Z,20.87
2018-12-22T11:18:48.883Z,20.97
2018-12-22T11:21:16.971Z,21.23
2018-12-22T11:23:45.123Z,23.03
2018-12-22T11:26:12.968Z,18.93
2018-12-22T11:28:41.096Z,23.23
2018-12-22T11:31:08.981Z,26.43
2018-12-22T11:33:36.983Z,35.63
2018-12-22T11:36:04.861Z,33.83
2018-12-22T11:38:32.961Z,30.30
2018-12-22T11:41:01.024Z,31.73
2018-12-22T11:43:29.371Z,35.87
2018-12-22T11:45:57.851Z,33.47
2018-12-22T11:48:25.717Z,30.90
2018-12-22T11:50:53.999Z,26.67
2018-12-22T11:53:22.108Z,31.83
2018-12-22T11:55:50.079Z,37.40
2018-12-22T11:58:18.206Z,26.97
2018-12-22T12:00:46.052Z,26.27
2018-12-22T12:03:14.126Z,27.87
2018-12-22T12:05:42.274Z,24.30
2018-12-22T12:08:10.128Z,25.60
2018-12-22T12:10:38.032Z,27.63
2018-12-22T12:13:06.369Z,25.87
2018-12-22T12:15:38.317Z,26.30
2018-12-22T12:18:12.976Z,25.80
2018-12-22T12:20:40.835Z,24.70
2018-12-22T12:23:09.111Z,28.60
2018-12-22T12:25:36.991Z,25.80
2018-12-22T12:28:04.812Z,26.73
2018-12-22T12:30:32.633Z,24.47
2018-12-22T12:33:00.800Z,27.10
2018-12-22T12:35:28.690Z,25.27
2018-12-22T12:37:56.583Z,31.27
2018-12-22T12:40:24.504Z,28.63
2018-12-22T12:42:52.915Z,25.63
2018-12-22T12:45:20.808Z,28.23
2018-12-22T12:47:48.676Z,33.50
2018-12-22T12:50:21.480Z,31.27
2018-12-22T12:52:49.387Z,39.97
2018-12-22T12:55:17.245Z,33.57
2018-12-22T12:57:45.344Z,36.67
2018-12-22T13:00:18.838Z,32.63
2018-12-22T13:02:49.667Z,31.47
2018-12-22T13:05:18.383Z,42.13
2018-12-22T13:07:46.500Z,32.40
2018-12-22T13:10:14.333Z,35.00
2018-12-22T13:12:52.239Z,30.17
2018-12-22T13:15:20.087Z,29.00
2018-12-22T13:17:48.152Z,29.77
2018-12-22T13:20:16.285Z,29.17
2018-12-22T13:22:44.143Z,30.50
2018-12-22T13:25:14.077Z,26.30
2018-12-22T13:27:42.478Z,33.53
2018-12-22T13:30:12.531Z,29.93
2018-12-22T13:32:42.379Z,30.13
2018-12-22T13:35:12.559Z,30.80
2018-12-22T13:37:40.389Z,28.77
2018-12-22T13:40:11.020Z,30.40
2018-12-22T13:42:38.886Z,32.57
2018-12-22T13:45:11.949Z,33.07
2018-12-22T13:47:40.089Z,33.00
2018-12-22T13:50:12.343Z,33.10
2018-12-22T13:52:40.371Z,35.90
2018-12-22T13:55:09.436Z,33.87
2018-12-22T13:57:40.996Z,36.53
2018-12-22T14:00:29.626Z,35.60
2018-12-22T14:02:57.670Z,31.83
2018-12-22T14:05:28.760Z,34.97
2018-12-22T14:07:57.966Z,38.20
2018-12-22T14:10:26.730Z,39.93
2018-12-22T14:12:55.531Z,38.33
2018-12-22T14:15:24.833Z,39.07
2018-12-22T14:18:12.030Z,35.03
2018-12-22T14:20:40.088Z,43.37
2018-12-22T14:23:08.568Z,35.37
2018-12-22T14:25:36.648Z,41.70
2018-12-22T14:28:04.520Z,38.07
2018-12-22T14:30:33.392Z,38.73
2018-12-22T14:33:01.290Z,40.23
2018-12-22T14:35:32.674Z,41.43
2018-12-22T14:38:00.956Z,37.93
2018-12-22T14:40:29.235Z,40.47
2018-12-22T14:42:57.120Z,45.20
2018-12-22T14:45:24.988Z,47.03
2018-12-22T14:47:52.891Z,46.13
2018-12-22T14:50:21.543Z,48.73
2018-12-22T14:52:50.049Z,47.80
2018-12-22T14:55:17.923Z,49.13
2018-12-22T14:57:50.290Z,59.37
2018-12-22T15:00:18.371Z,52.50
2018-12-22T15:02:46.330Z,54.23
2018-12-22T15:05:14.611Z,53.17
2018-12-22T15:07:45.509Z,57.77
2018-12-22T15:10:13.900Z,57.07
2018-12-22T15:12:41.860Z,61.97
2018-12-22T15:15:11.311Z,54.80
2018-12-22T15:17:42.305Z,65.20
2018-12-22T15:20:15.407Z,61.47
2018-12-22T15:22:45.749Z,67.33
2018-12-22T15:25:19.225Z,65.77
2018-12-22T15:27:48.187Z,67.30
2018-12-22T15:30:18.119Z,67.30
2018-12-22T15:32:54.515Z,64.87
2018-12-22T15:35:16.928Z,78.40
2018-12-22T15:37:45.025Z,69.13
2018-12-22T15:40:13.172Z,72.90
2018-12-22T15:42:42.087Z,69.07
2018-12-22T15:45:17.147Z,68.67
2018-12-22T15:47:46.015Z,66.07
2018-12-22T15:50:22.477Z,68.60
2018-12-22T15:52:51.097Z,76.73
2018-12-22T15:55:19.621Z,63.90
2018-12-22T15:57:50.851Z,75.77
2018-12-22T16:00:18.757Z,69.63
2018-12-22T16:02:53.074Z,65.67
2018-12-22T16:05:17.971Z,69.67
2018-12-22T16:07:46.052Z,73.30
2018-12-22T16:10:17.866Z,73.20
2018-12-22T16:12:46.175Z,75.83
2018-12-22T16:15:18.310Z,85.77
2018-12-22T16:17:46.432Z,77.33
2018-12-22T16:20:14.587Z,84.20
2018-12-22T16:22:48.065Z,77.40
2018-12-22T16:25:16.008Z,58.07
2018-12-22T16:27:44.633Z,56.63
2018-12-22T16:30:17.860Z,63.60
2018-12-22T16:32:45.894Z,62.27
2018-12-22T16:35:13.937Z,53.63
2018-12-22T16:37:42.231Z,57.50
2018-12-22T16:40:12.776Z,65.53
2018-12-22T16:42:40.906Z,67.43
2018-12-22T16:45:12.974Z,59.47
2018-12-22T16:47:40.873Z,69.20
2018-12-22T16:50:11.413Z,67.83
2018-12-22T16:52:39.474Z,61.03
2018-12-22T16:55:11.637Z,63.53
2018-12-22T16:57:41.524Z,64.60
2018-12-22T17:00:14.894Z,67.00
2018-12-22T17:02:44.757Z,70.97
2018-12-22T17:05:12.648Z,65.80
2018-12-22T17:07:41.109Z,67.07
2018-12-22T17:10:09.584Z,81.20
2018-12-22T17:12:37.898Z,70.23
2018-12-22T17:15:21.615Z,59.67
2018-12-22T17:17:44.151Z,51.23
2018-12-22T17:20:14.873Z,53.70
2018-12-22T17:22:52.986Z,56.50
2018-12-22T17:25:21.528Z,53.43
2018-12-22T17:27:50.053Z,52.57
2018-12-22T17:30:18.202Z,56.70
2018-12-22T17:32:46.112Z,55.13
2018-12-22T17:37:44.621Z,57.50
2018-12-22T17:40:12.955Z,48.57
2018-12-22T17:42:41.436Z,51.20
2018-12-22T17:45:11.175Z,51.97
2018-12-22T17:47:40.401Z,52.83
2018-12-22T17:50:10.766Z,42.20
2018-12-22T17:52:38.837Z,49.07
2018-12-22T17:55:09.488Z,49.43
2018-12-22T17:57:37.641Z,47.50
2018-12-22T18:00:10.866Z,49.93
2018-12-22T18:02:38.892Z,49.80
2018-12-22T18:05:07.807Z,67.90
2018-12-22T18:07:35.877Z,59.70
2018-12-22T18:10:06.891Z,67.13
2018-12-22T18:12:35.394Z,69.47
2018-12-22T18:15:13.731Z,84.23
2018-12-22T18:17:41.776Z,81.40
2018-12-22T18:20:10.439Z,96.00
2018-12-22T18:22:38.966Z,108.27
2018-12-22T18:25:17.824Z,92.57
2018-12-22T18:27:47.767Z,91.03
2018-12-22T18:30:16.522Z,97.73
2018-12-22T18:32:45.497Z,98.43
2018-12-22T18:35:13.681Z,98.47
2018-12-22T18:37:41.535Z,102.63
2018-12-22T18:40:20.585Z,103.80
2018-12-22T18:42:48.582Z,104.73
2018-12-22T18:45:16.672Z,96.37
2018-12-22T18:47:44.853Z,104.23
2018-12-22T18:50:27.939Z,85.33
2018-12-22T18:55:19.331Z,86.63
2018-12-22T18:57:49.676Z,86.87
2018-12-22T19:00:20.824Z,84.80
2018-12-22T19:02:49.178Z,74.23
2018-12-22T19:05:18.422Z,76.30
2018-12-22T19:07:46.324Z,88.37
2018-12-22T19:10:22.873Z,88.50
2018-12-22T19:12:50.842Z,92.40
2018-12-22T19:15:19.976Z,110.70
2018-12-22T19:17:48.471Z,96.90
2018-12-22T19:20:21.366Z,90.60
2018-12-22T19:22:49.291Z,82.80
2018-12-22T19:25:17.560Z,93.63
2018-12-22T19:27:45.764Z,76.23
2018-12-22T19:30:13.807Z,82.23
2018-12-22T19:32:43.488Z,68.73
2018-12-22T19:35:12.376Z,67.90
2018-12-22T19:37:41.789Z,67.17
2018-12-22T19:40:09.815Z,62.50
2018-12-22T19:42:37.900Z,59.07
2018-12-22T19:45:07.185Z,51.60
2018-12-22T19:47:35.262Z,55.63
2018-12-22T19:50:05.200Z,49.00
2018-12-22T19:52:33.037Z,55.10
2018-12-22T19:55:01.138Z,53.77
2018-12-22T19:57:29.174Z,54.13
2018-12-22T19:59:57.481Z,50.57
2018-12-22T20:02:25.369Z,45.43
2018-12-22T20:04:53.313Z,39.70
2018-12-22T20:07:21.283Z,40.00
2018-12-22T20:09:49.467Z,42.43
2018-12-22T20:12:18.043Z,40.50
2018-12-22T20:14:46.311Z,40.83
2018-12-22T20:17:14.438Z,37.23
2018-12-22T20:19:42.603Z,39.03
2018-12-22T20:22:15.234Z,39.77
2018-12-22T20:24:43.143Z,41.50
2018-12-22T20:27:11.328Z,39.80
2018-12-22T20:29:39.459Z,35.23
2018-12-22T20:32:07.665Z,36.93
2018-12-22T20:34:36.236Z,33.23
2018-12-22T20:37:04.377Z,38.40
2018-12-22T20:39:32.471Z,32.90
2018-12-22T20:42:00.926Z,33.17
2018-12-22T20:44:28.964Z,30.57
2018-12-22T20:46:56.941Z,30.17
2018-12-22T20:49:25.239Z,29.87
2018-12-22T20:51:53.188Z,31.20
2018-12-22T20:54:21.245Z,35.10
2018-12-22T20:56:49.388Z,32.97
2018-12-22T20:59:17.505Z,35.00
2018-12-22T21:01:45.592Z,30.43
2018-12-22T21:04:19.842Z,31.03
2018-12-22T21:06:43.787Z,31.70
2018-12-22T21:09:11.935Z,35.90
2018-12-22T21:11:39.812Z,34.80
2018-12-22T21:14:07.745Z,35.43
2018-12-22T21:16:36.080Z,37.40
2018-12-22T21:19:04.017Z,36.93
2018-12-22T21:21:32.324Z,36.63
2018-12-22T21:24:00.686Z,36.57
2018-12-22T21:26:28.832Z,36.03
2018-12-22T21:28:56.828Z,42.30
2018-12-22T21:31:24.801Z,41.57
2018-12-22T21:33:52.869Z,37.30
2018-12-22T21:36:20.765Z,37.00
2018-12-22T21:38:48.945Z,37.30
2018-12-22T21:41:17.000Z,36.00
2018-12-22T21:43:45.250Z,36.10
2018-12-22T21:46:13.115Z,37.87
2018-12-22T21:48:41.025Z,41.67
2018-12-22T21:51:09.360Z,36.23
2018-12-22T21:53:37.192Z,42.60
2018-12-22T21:56:05.296Z,37.17
2018-12-22T21:58:33.343Z,36.93
2018-12-22T22:01:01.850Z,38.37
2018-12-22T22:03:29.889Z,40.57
2018-12-22T22:05:58.400Z,34.50
2018-12-22T22:08:26.402Z,35.67
2018-12-22T22:10:54.334Z,34.90
2018-12-22T22:13:22.216Z,40.10
2018-12-22T22:15:50.114Z,39.80
2018-12-22T22:18:18.395Z,42.20
2018-12-22T22:20:46.822Z,38.10
2018-12-22T22:23:31.260Z,39.53
2018-12-22T22:25:59.611Z,40.90
2018-12-22T22:28:27.663Z,40.90
2018-12-22T22:31:01.087Z,40.33
2018-12-22T22:33:56.222Z,44.37
2018-12-22T22:36:24.036Z,44.33
2018-12-22T22:38:51.999Z,40.57
2018-12-22T22:41:20.103Z,41.93
2018-12-22T22:43:47.994Z,43.50
2018-12-22T22:46:15.861Z,43.00
2018-12-22T22:48:43.727Z,44.90
2018-12-22T22:51:12.002Z,44.13
2018-12-22T22:53:40.276Z,46.17
2018-12-22T22:56:08.104Z,39.87
2018-12-22T22:58:36.341Z,41.60
2018-12-22T23:01:04.694Z,41.20
2018-12-22T23:03:32.516Z,44.57
2018-12-22T23:06:00.504Z,46.37
2018-12-22T23:08:28.634Z,44.17
2018-12-22T23:10:56.797Z,43.70
2018-12-22T23:13:24.776Z,46.83
2018-12-22T23:15:52.912Z,38.70
2018-12-22T23:18:21.317Z,48.23
2018-12-22T23:20:49.327Z,41.13
2018-12-22T23:23:17.544Z,42.03
2018-12-22T23:25:45.502Z,43.23
2018-12-22T23:28:13.879Z,41.20
2018-12-22T23:30:42.334Z,43.13
2018-12-22T23:33:11.063Z,47.03
2018-12-22T23:35:39.885Z,45.30
2018-12-22T23:38:08.780Z,43.70
2018-12-22T23:40:36.690Z,46.57
2018-12-22T23:43:04.763Z,46.07
2018-12-22T23:45:34.187Z,43.27
2018-12-22T23:48:02.233Z,43.53
2018-12-22T23:50:30.135Z,45.27
2018-12-22T23:52:58.304Z,44.30
2018-12-22T23:55:26.330Z,38.63
2018-12-22T23:57:54.209Z,38.97
